Youngsville, NM

9:40 PM MDT on September 17, 2014 (GMT -0600)
Las Silvestres | Change Station
CLOSE
Current Station
Personal Weather Station
Location: Abiquiu, NM
Elevation: 6010 ft
Nearby Weather Stations

Elev 6010 ft 36.21 °N, 106.35 °W | Updated 14 minutes ago

Partly Cloudy
Partly Cloudy
58.8 °F
Feels Like 58.8 °F
N
0.0
Wind Variable Wind from SE
Gusts 0.0 mph

Today
High -- | Low -- °F
--% Chance of Precip.
Yesterday
High -- | Low -- °F
Precip. -- in
6:50 AM 7:10 PM
Waning Crescent, 30% visible
Pressure 30.23 in
Visibility 10.0 miles
Clouds Clear
Dew Point 52 °F
Humidity 79%
Rainfall 0.00 in
Snow Depth 1 in , 1 in , 0 in
UV 0 out of 12
Pollen 5.30 out of 12
Air Quality Not available.
Flu Activity Not available.
METAR KLAM 180315Z AUTO 23005KT 10SM CLR 18/04 A3023 RMK AO2 T01760039

More Conditions Fewer Conditions

Pressure 30.23 in
Visibility 10.0 miles
Clouds Clear
Dew Point 52 °F
Humidity 79%
Rainfall 0.00 in
Snow Depth 1 in , 1 in , 0 in
UV 0 out of 12
Pollen 5.30 out of 12
Air Quality Not available.
Flu Activity Not available.
METAR KLAM 180315Z AUTO 23005KT 10SM CLR 18/04 A3023 RMK AO2 T01760039

More Conditions Fewer Conditions

10-Day Weather Forecast

Almanac

Astronomy

Sep. 17, 2014 Rise Set
Actual Time 6:50 AM MDT 7:10 PM MDT
Civil Twilight 6:24 AM MDT 7:36 PM MDT
Nautical Twilight 5:54 AM MDT 8:06 PM MDT
Astronomical Twilight 5:23 AM MDT 8:36 PM MDT
Moon 1:00 AM MDT (9/17) 3:15 PM MDT (9/17)
Length of Visible Light 13h 11m
Length of Day
12h 20m
Tomorrow will be 2m 15s shorter.
Waning Crescent, 30% of the Moon is Illuminated
Today
Waning Crescent
Sep 24
New
Oct 1
First Quarter
Oct 8
Full
Oct 15
Last Quarter

Today's Extremes

State Highs State Lows

Community

WunderPhotos

Upload Photos

1,754,283 photos uploaded!

Nearby

Snow Depth

Station Depth Elevation
Silver Creek Divide 1 in 9000 ft
Sierra Blanca 1 in 10280 ft
Tolby 0 in 10180 ft
Wesner Springs 3 in 11120 ft
Santa Fe 1 in 11445 ft

Earthquake Activity

City Distance Mag. Time & Date
No recent earthquake activity has been reported nearby.
Minimum magnitude displayed is 2.5.

Coastal Water Temperatures

Place Temperature
No Stations Reporting

Nearby Weather Stations